Terminal Aerodrome Forecast
Issued by NWS

Home | Current Version | Previous Version | Text Only | Print | Product List | Glossary On
Versions: 1 2 3 4 5 6 7 8 9 10 11 12 13 14 15 16 17 18 19 20 21 22 23 24 25 26 27
248
FTUS41 KBOX 130942 AAA
TAFHYA
TAF AMD
KHYA 130942Z 1310/1406 30005KT 3SM -SN BR OVC040
     FM131030 30007KT P6SM OVC045
     FM131400 30013G21KT P6SM BKN045
     FM131500 31014G24KT P6SM BKN025
     FM131800 31019G35KT P6SM BKN025
     FM140200 30021G37KT P6SM VCSH BKN025=

USA.gov is the U.S. government's official web portal to all federal, state and local government web resources and services.